createdAt,value
2018-09-13T00:00:11.127Z,17.89
2018-09-13T00:02:40.520Z,17.93
2018-09-13T00:05:09.097Z,18.03
2018-09-13T00:07:37.626Z,18.12
2018-09-13T00:10:06.271Z,18.15
2018-09-13T00:12:34.943Z,18.18
2018-09-13T00:15:03.597Z,18.19
2018-09-13T00:17:32.199Z,18.21
2018-09-13T00:20:00.775Z,18.24
2018-09-13T00:22:29.299Z,18.29
2018-09-13T00:24:58.027Z,18.33
2018-09-13T00:27:26.616Z,18.34
2018-09-13T00:29:55.226Z,18.35
2018-09-13T00:32:23.772Z,18.35
2018-09-13T00:34:52.344Z,18.31
2018-09-13T00:37:20.914Z,18.32
2018-09-13T00:39:49.439Z,18.30
2018-09-13T00:42:18.009Z,18.32
2018-09-13T00:44:46.563Z,18.29
2018-09-13T00:47:15.132Z,18.29
2018-09-13T00:49:44.113Z,18.25
2018-09-13T00:52:12.663Z,18.20
2018-09-13T00:54:41.187Z,18.16
2018-09-13T00:57:09.996Z,18.09
2018-09-13T00:59:38.517Z,18.08
2018-09-13T01:02:07.198Z,18.07
2018-09-13T01:04:35.735Z,18.11
2018-09-13T01:07:04.393Z,18.08
2018-09-13T01:09:33.015Z,18.08
2018-09-13T01:12:01.539Z,18.07
2018-09-13T01:14:30.236Z,18.09
2018-09-13T01:16:58.780Z,18.15
2018-09-13T01:19:27.390Z,18.22
2018-09-13T01:21:55.956Z,18.29
2018-09-13T01:24:24.600Z,18.30
2018-09-13T01:26:53.139Z,18.28
2018-09-13T01:29:21.682Z,18.22
2018-09-13T01:31:50.227Z,18.19
2018-09-13T01:34:19.549Z,18.15
2018-09-13T01:36:48.944Z,18.16
2018-09-13T01:39:17.500Z,18.19
2018-09-13T01:41:46.057Z,18.14
2018-09-13T01:44:14.640Z,18.08
2018-09-13T01:46:43.211Z,18.07
2018-09-13T01:49:11.998Z,18.10
2018-09-13T01:51:40.558Z,18.06
2018-09-13T01:54:09.168Z,18.05
2018-09-13T01:56:37.692Z,18.04
2018-09-13T01:59:06.256Z,18.02
2018-09-13T02:01:34.809Z,18.02
2018-09-13T02:04:03.912Z,18.02
2018-09-13T02:06:32.453Z,18.04
2018-09-13T02:09:00.992Z,18.04
2018-09-13T02:11:29.550Z,18.03
2018-09-13T02:13:58.172Z,17.99
2018-09-13T02:16:27.000Z,18.02
2018-09-13T02:18:55.512Z,18.03
2018-09-13T02:21:24.047Z,18.07
2018-09-13T02:23:52.643Z,18.07
2018-09-13T02:26:21.159Z,18.07
2018-09-13T02:28:49.707Z,18.10
2018-09-13T02:31:18.448Z,18.14
2018-09-13T02:33:47.107Z,18.06
2018-09-13T02:36:15.656Z,17.95
2018-09-13T02:38:44.527Z,17.75
2018-09-13T02:41:13.400Z,17.73
2018-09-13T02:43:42.013Z,17.74
2018-09-13T02:46:10.592Z,17.77
2018-09-13T02:48:39.208Z,17.81
2018-09-13T02:51:07.786Z,17.83
2018-09-13T02:53:36.461Z,17.78
2018-09-13T02:56:04.987Z,17.66
2018-09-13T02:58:33.528Z,17.65
2018-09-13T03:01:02.203Z,17.62
2018-09-13T03:03:30.749Z,17.74
2018-09-13T03:05:59.276Z,17.83
2018-09-13T03:08:27.911Z,17.91
2018-09-13T03:10:56.409Z,17.92
2018-09-13T03:13:25.000Z,17.98
2018-09-13T03:15:53.720Z,17.93
2018-09-13T03:18:22.316Z,17.86
2018-09-13T03:20:51.175Z,17.79
2018-09-13T03:23:19.814Z,17.82
2018-09-13T03:25:48.349Z,17.84
2018-09-13T03:28:16.998Z,17.81
2018-09-13T03:30:45.601Z,17.71
2018-09-13T03:33:14.216Z,17.69
2018-09-13T03:35:42.748Z,17.68
2018-09-13T03:38:11.314Z,17.71
2018-09-13T03:40:40.965Z,17.63
2018-09-13T03:43:09.681Z,17.62
2018-09-13T03:45:38.249Z,17.56
2018-09-13T03:48:06.773Z,17.51
2018-09-13T03:50:35.471Z,17.48
2018-09-13T03:53:04.704Z,17.47
2018-09-13T03:55:33.276Z,17.50
2018-09-13T03:58:02.645Z,17.50
2018-09-13T04:00:31.175Z,17.57
2018-09-13T04:03:00.537Z,17.59
2018-09-13T04:05:29.072Z,17.60
2018-09-13T04:07:57.609Z,17.62
2018-09-13T04:10:26.216Z,17.59
2018-09-13T04:12:54.915Z,17.61
2018-09-13T04:15:23.492Z,17.60
2018-09-13T04:17:54.012Z,17.65
2018-09-13T04:20:22.572Z,17.62
2018-09-13T04:22:51.124Z,17.66
2018-09-13T04:25:19.696Z,17.70
2018-09-13T04:27:48.239Z,17.71
2018-09-13T04:30:16.773Z,17.73
2018-09-13T04:32:45.319Z,17.73
2018-09-13T04:35:14.204Z,17.68
2018-09-13T04:37:42.744Z,17.60
2018-09-13T04:40:11.409Z,17.57
2018-09-13T04:42:40.127Z,17.56
2018-09-13T04:45:08.708Z,17.47
2018-09-13T04:47:37.271Z,17.47
2018-09-13T04:50:06.808Z,17.47
2018-09-13T04:52:35.603Z,17.51
2018-09-13T04:55:05.010Z,17.55
2018-09-13T04:57:33.559Z,17.60
2018-09-13T05:00:02.103Z,17.66
2018-09-13T05:02:30.657Z,17.67
2018-09-13T05:04:59.262Z,17.67
2018-09-13T05:10:17.781Z,17.71
2018-09-13T05:12:46.353Z,17.76
2018-09-13T05:15:15.020Z,17.85
2018-09-13T05:17:43.590Z,17.89
2018-09-13T05:20:12.250Z,17.87
2018-09-13T05:22:40.852Z,17.86
2018-09-13T05:25:09.487Z,17.88
2018-09-13T05:27:38.073Z,17.86
2018-09-13T05:30:07.248Z,17.92
2018-09-13T05:32:36.541Z,17.94
2018-09-13T05:35:05.828Z,18.03
2018-09-13T05:37:34.411Z,18.04
2018-09-13T05:40:02.988Z,18.14
2018-09-13T05:42:31.575Z,18.26
2018-09-13T05:45:00.363Z,18.39
2018-09-13T05:47:28.907Z,18.54
2018-09-13T05:49:57.459Z,18.69
2018-09-13T05:52:26.017Z,18.76
2018-09-13T05:54:54.785Z,18.86
2018-09-13T05:57:23.368Z,18.94
2018-09-13T05:59:52.029Z,18.97
2018-09-13T06:02:20.592Z,18.95
2018-09-13T06:04:49.465Z,18.93
2018-09-13T06:07:18.020Z,18.98
2018-09-13T06:09:46.553Z,19.07
2018-09-13T06:12:15.191Z,19.17
2018-09-13T06:14:43.745Z,19.29
2018-09-13T06:17:12.635Z,19.37
2018-09-13T06:19:41.253Z,19.45
2018-09-13T06:22:09.863Z,19.50
2018-09-13T06:24:38.420Z,19.52
2018-09-13T06:27:07.316Z,19.56
2018-09-13T06:29:36.264Z,19.66
2018-09-13T06:32:04.803Z,19.75
2018-09-13T06:34:33.337Z,19.87
2018-09-13T06:37:02.123Z,19.96
2018-09-13T06:39:30.668Z,20.03
2018-09-13T06:41:59.453Z,20.20
2018-09-13T06:44:27.998Z,20.38
2018-09-13T06:46:56.601Z,20.57
2018-09-13T06:49:25.160Z,20.80
2018-09-13T06:51:53.770Z,21.01
2018-09-13T06:54:22.330Z,21.21
2018-09-13T06:56:50.973Z,21.34
2018-09-13T06:59:19.533Z,21.52
2018-09-13T07:01:48.722Z,21.71
2018-09-13T07:04:17.303Z,21.84
2018-09-13T07:06:45.880Z,21.97
2018-09-13T07:09:15.502Z,22.04
2018-09-13T07:11:44.859Z,22.01
2018-09-13T07:14:13.514Z,22.03
2018-09-13T07:16:42.083Z,22.07
2018-09-13T07:22:03.047Z,22.20
2018-09-13T07:24:31.788Z,22.31
2018-09-13T07:27:00.538Z,22.49
2018-09-13T07:29:29.096Z,22.68
2018-09-13T07:31:57.928Z,22.89
2018-09-13T07:34:26.575Z,23.09
2018-09-13T07:36:55.161Z,23.26
2018-09-13T07:39:23.775Z,23.36
2018-09-13T07:41:52.336Z,23.58
2018-09-13T07:44:21.131Z,23.68
2018-09-13T07:46:49.689Z,23.78
2018-09-13T07:49:18.257Z,23.89
2018-09-13T07:51:46.868Z,23.92
2018-09-13T07:54:15.405Z,23.98
2018-09-13T07:56:43.995Z,24.04
2018-09-13T07:59:12.609Z,24.18
2018-09-13T08:01:41.176Z,24.34
2018-09-13T08:04:09.753Z,24.50
2018-09-13T08:06:38.287Z,24.62
2018-09-13T08:09:09.879Z,24.76
2018-09-13T08:11:38.564Z,24.76
2018-09-13T08:14:07.100Z,24.48
2018-09-13T08:16:35.656Z,24.71
2018-09-13T08:19:04.310Z,24.87
2018-09-13T08:27:13.578Z,25.31
2018-09-13T08:29:42.168Z,25.48
2018-09-13T08:32:10.752Z,25.62
2018-09-13T08:34:39.387Z,25.83
2018-09-13T08:37:08.025Z,26.08
2018-09-13T08:39:36.544Z,26.25
2018-09-13T08:44:55.276Z,26.55
2018-09-13T08:47:23.870Z,26.58
2018-09-13T08:49:52.485Z,26.63
2018-09-13T08:52:21.089Z,26.82
2018-09-13T08:54:49.623Z,27.00
2018-09-13T08:57:18.187Z,27.17
2018-09-13T08:59:46.739Z,27.33
2018-09-13T09:02:15.316Z,27.48
2018-09-13T09:04:43.868Z,27.66
2018-09-13T09:07:12.503Z,27.82
2018-09-13T09:09:41.132Z,27.96
2018-09-13T09:12:09.960Z,28.07
2018-09-13T09:14:38.812Z,28.28
2018-09-13T09:17:07.624Z,28.32
2018-09-13T09:19:36.233Z,27.90
2018-09-13T09:22:04.883Z,27.86
2018-09-13T09:24:33.420Z,28.10
2018-09-13T09:27:02.005Z,28.00
2018-09-13T09:29:30.665Z,27.90
2018-09-13T09:31:59.256Z,28.21
2018-09-13T09:34:27.828Z,28.27
2018-09-13T09:36:56.376Z,28.48
2018-09-13T09:39:24.948Z,28.78
2018-09-13T09:41:53.642Z,28.81
2018-09-13T09:44:22.249Z,28.95
2018-09-13T09:46:50.771Z,29.40
2018-09-13T09:49:19.348Z,29.84
2018-09-13T09:51:47.948Z,30.34
2018-09-13T09:54:16.509Z,30.80
2018-09-13T09:56:45.105Z,30.93
2018-09-13T09:59:13.689Z,30.44
2018-09-13T10:01:47.792Z,30.86
2018-09-13T10:04:16.629Z,30.40
2018-09-13T10:06:45.171Z,30.33
2018-09-13T10:09:13.866Z,30.66
2018-09-13T10:11:42.480Z,30.87
2018-09-13T10:14:11.077Z,31.26
2018-09-13T10:16:44.888Z,31.77
2018-09-13T10:19:18.771Z,31.96
2018-09-13T10:21:52.470Z,32.49
2018-09-13T10:24:26.872Z,32.90
2018-09-13T10:27:00.634Z,32.63
2018-09-13T10:29:34.746Z,33.08
2018-09-13T10:32:08.633Z,33.27
2018-09-13T10:34:42.425Z,32.39
2018-09-13T10:37:16.104Z,33.17
2018-09-13T10:39:49.868Z,32.65
2018-09-13T10:42:23.509Z,32.99
2018-09-13T10:44:57.117Z,33.23
2018-09-13T10:47:30.929Z,33.39
2018-09-13T10:50:10.600Z,32.57
2018-09-13T10:52:41.542Z,32.82
2018-09-13T10:55:10.078Z,32.02
2018-09-13T10:57:42.548Z,32.42
2018-09-13T11:00:12.053Z,32.61
2018-09-13T11:02:40.675Z,32.72
2018-09-13T11:05:09.341Z,32.55
2018-09-13T11:07:37.927Z,32.35
2018-09-13T11:10:06.536Z,32.05
2018-09-13T11:12:44.282Z,31.88
2018-09-13T11:15:21.252Z,31.99
2018-09-13T11:17:49.829Z,32.01
2018-09-13T11:20:18.355Z,32.19
2018-09-13T11:22:51.020Z,32.34
2018-09-13T11:25:19.564Z,32.36
2018-09-13T11:31:10.440Z,32.18
2018-09-13T11:33:39.408Z,31.56
2018-09-13T11:36:08.080Z,31.62
2018-09-13T11:38:36.648Z,31.31
2018-09-13T11:41:05.584Z,31.22
2018-09-13T11:43:34.225Z,30.60
2018-09-13T11:46:02.864Z,30.31
2018-09-13T11:48:31.703Z,30.86
2018-09-13T11:51:00.489Z,31.12
2018-09-13T11:53:29.233Z,31.22
2018-09-13T11:55:57.807Z,31.54
2018-09-13T11:58:26.388Z,31.29
2018-09-13T12:00:54.925Z,31.62
2018-09-13T12:03:23.482Z,31.85
2018-09-13T12:05:52.023Z,31.71
2018-09-13T12:08:20.723Z,31.62
2018-09-13T12:10:49.319Z,31.72
2018-09-13T12:13:17.916Z,32.06
2018-09-13T12:15:46.516Z,32.20
2018-09-13T12:18:15.122Z,32.35
2018-09-13T12:20:43.912Z,32.13
2018-09-13T12:23:12.597Z,31.92
2018-09-13T12:25:41.205Z,32.04
2018-09-13T12:28:09.760Z,31.57
2018-09-13T12:30:38.360Z,31.54
2018-09-13T12:33:06.967Z,31.93
2018-09-13T12:35:53.152Z,31.92
2018-09-13T12:38:21.699Z,32.16
2018-09-13T12:40:50.259Z,31.95
2018-09-13T12:43:18.850Z,32.19
2018-09-13T12:45:47.399Z,32.47
2018-09-13T12:48:16.133Z,32.53
2018-09-13T12:50:45.518Z,32.70
2018-09-13T12:53:14.124Z,33.15
2018-09-13T12:55:48.040Z,33.32
2018-09-13T12:58:16.580Z,32.84
2018-09-13T13:00:45.295Z,33.25
2018-09-13T13:03:14.096Z,33.56
2018-09-13T13:05:42.756Z,33.22
2018-09-13T13:08:11.330Z,33.32
2018-09-13T13:10:39.924Z,32.95
2018-09-13T13:13:08.503Z,32.52
2018-09-13T13:15:37.177Z,32.35
2018-09-13T13:18:05.861Z,32.77
2018-09-13T13:20:34.578Z,33.12
2018-09-13T13:23:03.196Z,32.92
2018-09-13T13:25:31.771Z,32.96
2018-09-13T13:28:01.112Z,32.89
2018-09-13T13:30:29.872Z,32.74
2018-09-13T13:32:58.410Z,32.64
2018-09-13T13:35:27.034Z,32.54
2018-09-13T13:37:55.607Z,32.49
2018-09-13T13:40:24.206Z,32.46
2018-09-13T13:42:52.796Z,32.34
2018-09-13T13:45:21.421Z,31.58
2018-09-13T13:47:50.008Z,31.36
2018-09-13T13:50:18.576Z,31.25
2018-09-13T13:52:47.250Z,30.95
2018-09-13T13:55:15.948Z,30.76
2018-09-13T13:57:44.611Z,30.74
2018-09-13T14:00:13.197Z,30.25
2018-09-13T14:02:44.725Z,30.41
2018-09-13T14:05:14.057Z,30.47
2018-09-13T14:07:42.791Z,30.58
2018-09-13T14:10:11.307Z,30.66
2018-09-13T14:12:39.958Z,30.75
2018-09-13T14:15:08.695Z,30.93
2018-09-13T14:17:37.367Z,30.90
2018-09-13T14:20:06.118Z,30.94
2018-09-13T14:22:34.728Z,30.98
2018-09-13T14:25:03.457Z,30.98
2018-09-13T14:27:32.192Z,30.99
2018-09-13T14:30:01.125Z,30.93
2018-09-13T14:32:29.684Z,31.00
2018-09-13T14:34:58.264Z,31.02
2018-09-13T14:37:27.341Z,30.61
2018-09-13T14:39:55.996Z,30.20
2018-09-13T14:42:24.606Z,30.00
2018-09-13T14:44:53.172Z,29.90
2018-09-13T14:47:21.789Z,30.06
2018-09-13T14:49:50.564Z,30.31
2018-09-13T14:52:19.127Z,30.54
2018-09-13T14:54:47.724Z,30.90
2018-09-13T14:57:16.407Z,31.12
2018-09-13T14:59:45.013Z,31.25
2018-09-13T15:02:13.977Z,30.92
2018-09-13T15:04:42.923Z,30.80
2018-09-13T15:07:11.698Z,30.97
2018-09-13T15:09:40.446Z,31.11
2018-09-13T15:12:08.981Z,31.15
2018-09-13T15:14:37.519Z,30.99
2018-09-13T15:17:05.708Z,30.94
2018-09-13T15:19:34.567Z,30.90
2018-09-13T15:22:03.208Z,30.99
2018-09-13T15:24:31.851Z,30.86
2018-09-13T15:27:00.368Z,30.84
2018-09-13T15:29:29.090Z,30.77
2018-09-13T15:31:57.711Z,30.72
2018-09-13T15:34:26.362Z,30.69
2018-09-13T15:36:54.930Z,30.53
2018-09-13T15:39:23.544Z,30.18
2018-09-13T15:41:52.256Z,29.84
2018-09-13T15:44:20.857Z,29.67
2018-09-13T15:46:49.504Z,29.55
2018-09-13T15:49:18.161Z,29.37
2018-09-13T15:51:46.769Z,29.25
2018-09-13T15:54:15.405Z,29.19
2018-09-13T15:56:44.862Z,29.13
2018-09-13T15:59:13.496Z,28.92
2018-09-13T16:01:42.170Z,28.78
2018-09-13T16:04:10.720Z,28.55
2018-09-13T16:06:39.277Z,28.40
2018-09-13T16:09:09.040Z,28.22
2018-09-13T16:11:38.079Z,28.12
2018-09-13T16:14:06.772Z,28.09
2018-09-13T16:16:35.756Z,29.35
2018-09-13T16:22:06.680Z,32.71
2018-09-13T16:24:35.271Z,32.73
2018-09-13T16:27:03.892Z,31.30
2018-09-13T16:29:32.477Z,29.85
2018-09-13T16:32:01.976Z,28.81
2018-09-13T16:34:30.552Z,28.12
2018-09-13T16:37:06.768Z,27.43
2018-09-13T16:39:40.557Z,26.90
2018-09-13T16:42:14.359Z,26.54
2018-09-13T16:44:56.254Z,26.16
2018-09-13T16:47:31.722Z,25.86
2018-09-13T16:50:01.698Z,25.51
2018-09-13T16:52:31.163Z,25.13
2018-09-13T16:54:59.804Z,24.84
2018-09-13T16:57:28.390Z,24.75
2018-09-13T16:59:57.735Z,24.73
2018-09-13T17:02:26.299Z,24.66
2018-09-13T17:04:54.926Z,24.64
2018-09-13T17:07:23.540Z,24.64
2018-09-13T17:09:52.785Z,24.64
2018-09-13T17:12:21.348Z,24.70
2018-09-13T17:14:50.072Z,24.61
2018-09-13T17:17:19.025Z,24.63
2018-09-13T17:19:47.597Z,24.56
2018-09-13T17:22:16.149Z,24.57
2018-09-13T17:24:44.738Z,24.57
2018-09-13T17:27:13.555Z,24.49
2018-09-13T17:29:42.252Z,24.34
2018-09-13T17:32:11.055Z,24.28
2018-09-13T17:34:39.633Z,24.23
2018-09-13T17:37:08.236Z,24.17
2018-09-13T17:39:36.777Z,24.13
2018-09-13T17:42:05.604Z,24.09
2018-09-13T17:44:34.196Z,24.00
2018-09-13T17:47:02.886Z,23.95
2018-09-13T17:49:31.612Z,23.91
2018-09-13T17:52:00.273Z,23.89
2018-09-13T17:54:28.821Z,23.87
2018-09-13T17:56:57.374Z,23.84
2018-09-13T17:59:25.971Z,23.79
2018-09-13T18:01:54.599Z,23.78
2018-09-13T18:04:23.163Z,23.73
2018-09-13T18:06:51.772Z,23.72
2018-09-13T18:09:20.323Z,23.57
2018-09-13T18:11:48.906Z,23.53
2018-09-13T18:14:17.496Z,23.57
2018-09-13T18:16:46.061Z,23.48
2018-09-13T18:19:14.615Z,23.30
2018-09-13T18:21:43.206Z,23.25
2018-09-13T18:24:11.769Z,23.09
2018-09-13T18:26:40.344Z,22.89
2018-09-13T18:29:12.531Z,22.76
2018-09-13T18:31:41.246Z,22.79
2018-09-13T18:34:09.801Z,22.89
2018-09-13T18:36:38.780Z,22.96
2018-09-13T18:39:08.867Z,22.95
2018-09-13T18:41:37.440Z,22.92
2018-09-13T18:44:06.068Z,22.92
2018-09-13T18:46:38.063Z,22.94
2018-09-13T18:49:07.088Z,22.99
2018-09-13T18:51:35.656Z,22.96
2018-09-13T18:54:04.333Z,23.00
2018-09-13T18:56:32.939Z,22.94
2018-09-13T19:07:55.522Z,22.82
2018-09-13T19:10:24.116Z,22.73
2018-09-13T19:12:52.671Z,22.68
2018-09-13T19:15:21.503Z,22.71
2018-09-13T19:17:50.043Z,22.71
2018-09-13T19:20:18.577Z,22.72
2018-09-13T19:22:47.087Z,22.70
2018-09-13T19:25:15.647Z,22.67
2018-09-13T19:27:44.195Z,22.59
2018-09-13T19:30:12.736Z,22.59
2018-09-13T19:32:41.406Z,22.39
2018-09-13T19:35:10.039Z,22.45
2018-09-13T19:37:38.600Z,22.50
2018-09-13T19:40:07.602Z,22.37
2018-09-13T19:42:37.029Z,22.30
2018-09-13T19:45:05.985Z,22.26
2018-09-13T19:47:34.815Z,22.25
2018-09-13T19:50:03.469Z,22.28
2018-09-13T19:52:32.056Z,22.28
2018-09-13T19:55:00.631Z,22.28
2018-09-13T19:57:29.329Z,22.26
2018-09-13T19:59:57.908Z,22.20
2018-09-13T20:02:27.255Z,22.17
2018-09-13T20:04:55.867Z,22.18
2018-09-13T20:07:24.408Z,22.15
2018-09-13T20:09:52.965Z,22.15
2018-09-13T20:12:21.517Z,22.18
2018-09-13T20:14:50.061Z,22.20
2018-09-13T20:17:18.651Z,22.13
2018-09-13T20:19:47.247Z,22.07
2018-09-13T20:22:15.829Z,22.07
2018-09-13T20:24:44.467Z,22.10
2018-09-13T20:27:13.673Z,22.09
2018-09-13T20:29:42.283Z,22.06
2018-09-13T20:32:10.888Z,22.12
2018-09-13T20:34:54.811Z,22.13
2018-09-13T20:37:25.093Z,22.14
2018-09-13T20:39:53.792Z,22.15
2018-09-13T20:42:27.925Z,22.19
2018-09-13T20:50:26.358Z,22.19
2018-09-13T20:53:06.157Z,22.14
2018-09-13T20:58:32.608Z,22.09
2018-09-13T21:01:01.241Z,21.99
2018-09-13T21:03:29.812Z,22.02
2018-09-13T21:05:58.339Z,22.00
2018-09-13T21:08:26.977Z,21.99
2018-09-13T21:10:55.534Z,21.94
2018-09-13T21:13:24.076Z,21.93
2018-09-13T21:15:52.720Z,21.91
2018-09-13T21:18:21.254Z,21.91
2018-09-13T21:20:49.795Z,21.91
2018-09-13T21:23:18.344Z,21.94
2018-09-13T21:25:46.894Z,21.72
2018-09-13T21:28:15.452Z,21.85
2018-09-13T21:30:43.984Z,21.84
2018-09-13T21:33:12.711Z,21.71
2018-09-13T21:35:41.362Z,21.57
2018-09-13T21:38:10.685Z,21.57
2018-09-13T21:40:39.242Z,21.63
2018-09-13T21:43:07.798Z,21.66
2018-09-13T21:45:36.367Z,21.70
2018-09-13T21:48:05.076Z,21.69
2018-09-13T21:50:33.679Z,21.48
2018-09-13T21:53:02.223Z,21.36
2018-09-13T21:55:30.843Z,21.34
2018-09-13T21:57:59.396Z,21.29
2018-09-13T22:00:28.001Z,21.35
2018-09-13T22:02:57.731Z,21.36
2018-09-13T22:05:26.261Z,21.39
2018-09-13T22:07:54.860Z,21.47
2018-09-13T22:10:23.397Z,21.46
2018-09-13T22:12:52.016Z,21.48
2018-09-13T22:15:20.642Z,21.47
2018-09-13T22:17:49.231Z,21.42
2018-09-13T22:20:18.049Z,21.09
2018-09-13T22:22:46.655Z,21.07
2018-09-13T22:25:15.233Z,21.05
2018-09-13T22:27:43.821Z,21.00
2018-09-13T22:30:12.415Z,20.94
2018-09-13T22:32:40.977Z,20.90
2018-09-13T22:38:00.255Z,20.97
2018-09-13T22:40:28.770Z,20.99
2018-09-13T22:42:57.296Z,20.97
2018-09-13T22:45:26.048Z,20.86
2018-09-13T22:47:54.645Z,20.82
2018-09-13T22:50:23.185Z,20.83
2018-09-13T22:52:51.859Z,20.85
2018-09-13T22:55:20.404Z,20.82
2018-09-13T22:57:49.072Z,20.78
2018-09-13T23:00:17.649Z,20.72
2018-09-13T23:02:48.693Z,20.66
2018-09-13T23:05:18.210Z,20.68
2018-09-13T23:07:47.011Z,20.73
2018-09-13T23:10:15.953Z,20.75
2018-09-13T23:12:44.523Z,20.78
2018-09-13T23:15:13.225Z,20.78
2018-09-13T23:17:42.019Z,20.82
2018-09-13T23:20:10.776Z,20.80
2018-09-13T23:22:39.307Z,20.72
2018-09-13T23:25:07.838Z,20.69
2018-09-13T23:27:36.376Z,20.64
2018-09-13T23:30:05.170Z,20.64
2018-09-13T23:32:33.721Z,20.66
2018-09-13T23:35:02.302Z,20.67
2018-09-13T23:37:30.916Z,20.68
2018-09-13T23:39:59.718Z,20.59
2018-09-13T23:42:28.049Z,20.48
2018-09-13T23:44:56.579Z,20.38
2018-09-13T23:47:25.210Z,20.40
2018-09-13T23:49:53.759Z,20.39
2018-09-13T23:52:22.311Z,20.38
2018-09-13T23:54:50.850Z,20.33
2018-09-13T23:57:19.411Z,20.31
2018-09-13T23:59:48.763Z,20.25
